Time;durP1;ratioP1;P1;durP2;ratioP2;P2;SDS_P1;SDS_P2;PMS_P1;PMS_P2;Temp;Humidity;BMP_temperature;BMP_pressure;BME280_temperature;BME280_humidity;BME280_pressure;Samples;Min_cycle;Max_cycle;Signal;HPM_P1;HPM_P2
2023/06/11 00:00:24;;;;;;;10.93;7.93;;;20.00;84.40;;;;;;5090422;28;20043;-54
2023/06/11 00:02:54;;;;;;;;;;;20.00;84.70;;;;;;5090633;28;20043;-50
2023/06/11 00:05:24;;;;;;;8.88;7.15;;;20.00;86.00;;;;;;5090594;28;20385;-51
2023/06/11 00:07:50;;;;;;;9.25;7.80;;;20.00;85.50;;;;;;5090219;28;20149;-54
2023/06/11 00:10:16;;;;;;;;;;;19.90;86.30;;;;;;5091074;28;20447;-55
2023/06/11 00:12:42;;;;;;;9.82;7.13;;;19.80;87.40;;;;;;5090726;28;19920;-51
2023/06/11 00:15:08;;;;;;;9.18;8.27;;;19.80;87.60;;;;;;5090366;28;20040;-52
2023/06/11 00:17:34;;;;;;;8.70;6.72;;;19.80;88.00;;;;;;5090132;28;20040;-50
2023/06/11 00:20:01;;;;;;;;;;;19.70;88.20;;;;;;5091415;28;20546;-51
2023/06/11 00:22:30;;;;;;;9.88;6.47;;;19.80;89.10;;;;;;5090853;28;20481;-55
2023/06/11 00:24:56;;;;;;;10.55;7.05;;;19.80;88.70;;;;;;5090705;28;20046;-51
2023/06/11 00:27:22;;;;;;;12.75;6.63;;;19.80;88.70;;;;;;5090541;28;20031;-51
2023/06/11 00:29:48;;;;;;;13.18;7.20;;;19.80;89.00;;;;;;5090214;28;20052;-53
2023/06/11 00:32:14;;;;;;;6.78;6.05;;;19.80;89.10;;;;;;5090413;28;20043;-51
2023/06/11 00:34:39;;;;;;;;;;;19.80;89.00;;;;;;5090987;28;20032;-51
2023/06/11 00:37:05;;;;;;;8.85;6.82;;;19.80;89.60;;;;;;5090206;28;20003;-55
2023/06/11 00:39:31;;;;;;;;;;;19.70;89.40;;;;;;5090037;28;20039;-51
2023/06/11 00:41:57;;;;;;;10.27;6.75;;;19.70;90.00;;;;;;5091178;28;20142;-51
2023/06/11 00:44:23;;;;;;;7.32;6.00;;;19.70;89.30;;;;;;5097335;28;20039;-55
2023/06/11 00:46:51;;;;;;;13.48;6.43;;;19.60;89.30;;;;;;5089948;28;20559;-50
2023/06/11 00:49:17;;;;;;;6.43;5.68;;;19.60;89.40;;;;;;5089849;28;20051;-51
2023/06/11 00:51:45;;;;;;;5.78;5.38;;;19.60;89.50;;;;;;5089969;28;20071;-51
2023/06/11 00:54:12;;;;;;;9.07;6.22;;;19.60;89.60;;;;;;5089929;28;20043;-51
2023/06/11 00:56:45;;;;;;;8.40;5.30;;;19.60;89.80;;;;;;5089858;28;20047;-53
2023/06/11 00:59:13;;;;;;;8.77;6.28;;;19.60;89.60;;;;;;5089224;28;20040;-53
2023/06/11 01:01:51;;;;;;;10.45;6.45;;;19.50;89.80;;;;;;5089692;28;20485;-52
2023/06/11 01:04:17;;;;;;;6.90;5.60;;;19.60;89.90;;;;;;5089980;28;20079;-51
2023/06/11 01:06:49;;;;;;;;;;;19.50;90.00;;;;;;5090393;28;20108;-51
2023/06/11 01:09:22;;;;;;;7.35;6.65;;;19.50;90.20;;;;;;5089587;28;20010;-51
2023/06/11 01:11:53;;;;;;;7.38;6.07;;;19.40;90.10;;;;;;5090058;28;20040;-51
2023/06/11 01:14:20;;;;;;;7.28;6.20;;;19.40;90.10;;;;;;5090224;28;20103;-51
2023/06/11 01:17:04;;;;;;;7.82;5.85;;;19.40;90.20;;;;;;5088389;28;20044;-51
2023/06/11 01:20:03;;;;;;;7.45;6.50;;;19.30;90.40;;;;;;5089333;28;20258;-51
2023/06/11 01:22:36;;;;;;;8.07;6.60;;;19.30;90.50;;;;;;5089541;28;20032;-52
2023/06/11 01:25:22;;;;;;;7.97;6.93;;;19.20;90.40;;;;;;5089623;28;20044;-54
2023/06/11 01:28:03;;;;;;;9.75;7.18;;;19.20;90.80;;;;;;5088686;28;20513;-52
2023/06/11 01:30:32;;;;;;;7.82;6.40;;;19.10;91.10;;;;;;5089360;28;20510;-54
2023/06/11 01:32:59;;;;;;;7.22;5.93;;;19.10;90.70;;;;;;5089279;28;20084;-51
2023/06/11 01:35:25;;;;;;;12.18;6.05;;;19.00;90.90;;;;;;5089230;28;20114;-51
2023/06/11 01:37:55;;;;;;;;;;;19.00;90.90;;;;;;5089383;28;20058;-54
2023/06/11 01:40:27;;;;;;;8.00;7.07;;;19.00;91.30;;;;;;5087852;28;20411;-55
2023/06/11 01:42:54;;;;;;;8.60;6.97;;;18.90;91.10;;;;;;5088679;28;20047;-54
2023/06/11 01:45:21;;;;;;;7.38;6.43;;;18.90;91.10;;;;;;5091957;28;20036;-51
2023/06/11 01:47:51;;;;;;;10.85;6.85;;;18.90;91.10;;;;;;5100987;28;20104;-53
2023/06/11 01:50:17;;;;;;;7.40;6.43;;;18.90;91.20;;;;;;5094407;28;20040;-50
2023/06/11 01:52:44;;;;;;;7.68;6.95;;;18.90;91.30;;;;;;5104713;28;20047;-54
2023/06/11 01:55:10;;;;;;;12.10;7.03;;;18.80;91.40;;;;;;5093098;28;20377;-52
2023/06/11 01:57:36;;;;;;;23.38;6.80;;;18.80;91.50;;;;;;5092517;28;20044;-51
2023/06/11 02:00:05;;;;;;;15.02;6.97;;;18.70;91.60;;;;;;5093375;28;20036;-51
2023/06/11 02:02:31;;;;;;;10.05;7.07;;;18.70;91.70;;;;;;5091543;28;20063;-51
2023/06/11 02:04:59;;;;;;;11.40;7.32;;;18.70;91.70;;;;;;5093205;28;20028;-51
2023/06/11 02:07:27;;;;;;;12.68;7.93;;;18.70;91.80;;;;;;5092629;28;20486;-52
2023/06/11 02:09:52;;;;;;;9.55;6.47;;;18.70;91.90;;;;;;5095318;28;20101;-51
2023/06/11 02:12:18;;;;;;;10.18;7.78;;;18.60;92.00;;;;;;5093005;28;20123;-52
2023/06/11 02:14:43;;;;;;;9.85;6.22;;;18.60;92.10;;;;;;5093253;28;20036;-51
2023/06/11 02:17:09;;;;;;;;;;;18.60;92.10;;;;;;5093488;28;20059;-50
2023/06/11 02:19:35;;;;;;;8.05;7.22;;;18.60;92.50;;;;;;5092629;28;19916;-51
2023/06/11 02:22:01;;;;;;;11.73;7.28;;;18.60;92.20;;;;;;5093043;28;20051;-51
2023/06/11 02:24:26;;;;;;;9.40;7.38;;;18.60;92.40;;;;;;5104302;28;20036;-51
2023/06/11 02:26:52;;;;;;;;;;;18.50;92.50;;;;;;5093437;28;20382;-56
2023/06/11 02:29:17;;;;;;;8.55;7.28;;;18.50;92.80;;;;;;5092311;28;19916;-51
2023/06/11 02:31:43;;;;;;;10.32;7.80;;;18.50;92.60;;;;;;5092656;28;20401;-51
2023/06/11 02:34:09;;;;;;;11.57;8.00;;;18.50;92.80;;;;;;5092434;28;20035;-53
2023/06/11 02:36:35;;;;;;;8.63;7.90;;;18.40;92.90;;;;;;5092423;28;20501;-53
2023/06/11 02:39:00;;;;;;;9.07;7.95;;;18.40;93.10;;;;;;5091279;28;20039;-50
2023/06/11 02:41:26;;;;;;;26.05;8.27;;;18.30;93.20;;;;;;5092105;28;20063;-50
2023/06/11 02:43:52;;;;;;;;;;;18.30;93.40;;;;;;5092347;28;20040;-51
2023/06/11 02:46:17;;;;;;;8.40;7.63;;;18.20;93.70;;;;;;5091771;28;19916;-51
2023/06/11 02:48:43;;;;;;;9.10;8.10;;;18.20;93.50;;;;;;5090872;28;20535;-54
2023/06/11 02:51:09;;;;;;;9.10;8.27;;;18.20;93.70;;;;;;5089525;28;20307;-54
2023/06/11 02:53:35;;;;;;;12.82;8.18;;;18.20;93.70;;;;;;5104529;28;20031;-53
2023/06/11 02:56:00;;;;;;;8.80;7.85;;;18.10;93.90;;;;;;5094000;28;20040;-51
2023/06/11 02:58:26;;;;;;;;;;;18.10;94.00;;;;;;5092261;28;20082;-51
2023/06/11 03:00:51;;;;;;;8.90;8.10;;;18.10;94.40;;;;;;5091640;28;19916;-51
2023/06/11 03:03:17;;;;;;;9.45;8.55;;;18.00;94.30;;;;;;5092061;28;20047;-51
2023/06/11 03:05:42;;;;;;;15.30;8.40;;;17.90;94.40;;;;;;5092116;28;20497;-51
2023/06/11 03:08:08;;;;;;;11.48;8.55;;;17.90;94.70;;;;;;5091384;28;20039;-54
2023/06/11 03:10:34;;;;;;;11.10;8.38;;;17.90;94.80;;;;;;5091700;28;20031;-53
2023/06/11 03:12:59;;;;;;;10.38;8.93;;;17.90;95.00;;;;;;5091738;28;20043;-50
2023/06/11 03:15:25;;;;;;;10.63;8.93;;;17.80;95.30;;;;;;5091442;28;20411;-51
2023/06/11 03:17:50;;;;;;;9.60;8.82;;;17.70;95.70;;;;;;5091036;28;20097;-51
2023/06/11 03:20:16;;;;;;;10.40;9.40;;;17.70;95.80;;;;;;5091353;28;20036;-54
2023/06/11 03:22:42;;;;;;;10.02;9.02;;;17.60;96.40;;;;;;5090942;28;20035;-53
2023/06/11 03:25:07;;;;;;;11.20;9.68;;;17.60;96.60;;;;;;5091592;28;20093;-52
2023/06/11 03:27:33;;;;;;;12.82;9.23;;;17.50;97.10;;;;;;5091261;28;20067;-51
2023/06/11 03:29:58;;;;;;;13.82;9.65;;;17.40;97.10;;;;;;5090180;28;20036;-51
2023/06/11 03:32:24;;;;;;;11.40;10.35;;;17.40;97.50;;;;;;5090249;28;20048;-54
2023/06/11 03:34:51;;;;;;;10.55;9.63;;;17.40;97.60;;;;;;5091402;28;20062;-53
2023/06/11 03:37:17;;;;;;;13.40;9.20;;;17.40;97.70;;;;;;5091161;28;20032;-53
2023/06/11 03:39:43;;;;;;;11.30;9.43;;;17.40;97.80;;;;;;5089148;28;20043;-51
2023/06/11 03:42:09;;;;;;;13.55;9.65;;;17.40;97.90;;;;;;5090968;28;20044;-54
2023/06/11 03:44:35;;;;;;;10.68;9.10;;;17.40;98.00;;;;;;5091170;28;20101;-52
2023/06/11 03:47:01;;;;;;;10.95;9.95;;;17.50;98.10;;;;;;5090382;28;20040;-54
2023/06/11 03:49:26;;;;;;;12.25;10.30;;;17.50;98.00;;;;;;5090644;28;20040;-52
2023/06/11 03:51:52;;;;;;;11.70;10.55;;;17.50;98.20;;;;;;5090893;28;20119;-51
2023/06/11 03:54:18;;;;;;;11.75;10.48;;;17.60;98.10;;;;;;5093810;28;20040;-55
2023/06/11 03:56:43;;;;;;;13.25;11.98;;;17.60;98.20;;;;;;5102072;28;20059;-51
2023/06/11 03:59:09;;;;;;;15.88;10.95;;;17.60;98.00;;;;;;5101765;28;20483;-55
2023/06/11 04:01:35;;;;;;;12.43;11.23;;;17.60;98.40;;;;;;5090287;28;20085;-51
2023/06/11 04:04:00;;;;;;;11.45;10.25;;;17.70;98.30;;;;;;5091037;28;20051;-51
2023/06/11 04:06:27;;;;;;;12.73;11.25;;;17.70;98.50;;;;;;5090945;28;20141;-50
2023/06/11 04:08:53;;;;;;;13.05;11.70;;;17.70;98.50;;;;;;5091031;28;20076;-50
2023/06/11 04:11:19;;;;;;;11.43;10.35;;;17.70;98.70;;;;;;5090536;28;20072;-50
2023/06/11 04:13:49;;;;;;;12.57;11.20;;;17.70;98.60;;;;;;5090985;28;20032;-51
2023/06/11 04:16:18;;;;;;;17.27;10.80;;;17.80;98.80;;;;;;5090125;28;20096;-51
2023/06/11 04:18:43;;;;;;;25.83;12.95;;;17.80;98.70;;;;;;5090294;28;20051;-53
2023/06/11 04:21:09;;;;;;;12.43;11.13;;;17.80;98.90;;;;;;5090401;28;20070;-50
2023/06/11 04:23:36;;;;;;;12.02;10.82;;;17.80;98.80;;;;;;5097582;28;20489;-50
2023/06/11 04:26:01;;;;;;;15.40;10.95;;;17.90;98.80;;;;;;5095561;28;20416;-50
2023/06/11 04:28:27;;;;;;;13.40;12.05;;;17.90;98.70;;;;;;5089951;28;20032;-51
2023/06/11 04:30:57;;;;;;;12.30;11.00;;;17.90;98.80;;;;;;5089920;28;20051;-51
2023/06/11 04:33:32;;;;;;;13.50;10.60;;;18.00;98.90;;;;;;5090190;28;20032;-51
2023/06/11 04:36:04;;;;;;;11.50;10.35;;;18.00;98.90;;;;;;5090477;28;20415;-50
2023/06/11 04:38:31;;;;;;;11.93;10.73;;;18.10;99.00;;;;;;5093103;28;20040;-53
2023/06/11 04:40:57;;;;;;;;;;;18.10;98.90;;;;;;5089960;28;20105;-52
2023/06/11 04:43:24;;;;;;;15.70;11.73;;;18.20;99.30;;;;;;5090133;28;19920;-50
2023/06/11 04:45:56;;;;;;;11.75;10.55;;;18.20;99.00;;;;;;5090086;28;20511;-50
2023/06/11 04:48:27;;;;;;;12.55;11.43;;;18.30;98.90;;;;;;5089414;28;20036;-50
2023/06/11 04:50:54;;;;;;;13.40;12.00;;;18.30;99.10;;;;;;5089844;28;20471;-53
2023/06/11 04:53:27;;;;;;;12.07;11.00;;;18.40;99.00;;;;;;5089663;28;20032;-54
2023/06/11 04:55:54;;;;;;;16.38;11.85;;;18.40;98.90;;;;;;5089959;28;20546;-51
2023/06/11 04:58:27;;;;;;;13.25;11.77;;;18.50;99.20;;;;;;5089662;28;20040;-50
2023/06/11 05:00:58;;;;;;;13.52;12.25;;;18.50;99.30;;;;;;5089658;28;20036;-55
2023/06/11 05:03:24;;;;;;;12.63;11.52;;;18.50;99.20;;;;;;5070600;28;20106;-51
2023/06/11 05:05:51;;;;;;;12.90;11.60;;;18.60;99.30;;;;;;5089420;28;20562;-54
2023/06/11 05:08:24;;;;;;;12.50;11.45;;;18.70;99.40;;;;;;5089417;28;20036;-51
2023/06/11 05:10:53;;;;;;;12.93;11.73;;;18.80;99.70;;;;;;5088476;28;20115;-51
2023/06/11 05:13:24;;;;;;;13.73;12.35;;;18.80;99.50;;;;;;5089594;28;20097;-54
2023/06/11 05:15:59;;;;;;;13.63;12.23;;;18.90;99.70;;;;;;5089942;28;20439;-54
2023/06/11 05:18:26;;;;;;;14.90;12.00;;;19.00;99.60;;;;;;5089523;28;20521;-51
2023/06/11 05:20:52;;;;;;;12.52;11.40;;;19.10;99.40;;;;;;5089812;28;20047;-50
2023/06/11 05:23:18;;;;;;;12.23;10.85;;;19.20;99.20;;;;;;5092171;28;20036;-53
2023/06/11 05:25:47;;;;;;;10.70;9.70;;;19.30;99.10;;;;;;5093828;28;20036;-51
2023/06/11 05:28:16;;;;;;;11.02;10.13;;;19.30;99.10;;;;;;5093190;28;20068;-51
2023/06/11 05:30:45;;;;;;;11.38;10.15;;;19.40;98.80;;;;;;5093058;28;20036;-54
2023/06/11 05:33:13;;;;;;;11.43;10.45;;;19.50;98.40;;;;;;5093777;28;20127;-51
2023/06/11 05:35:38;;;;;;;12.45;10.65;;;19.60;98.50;;;;;;5093708;28;20082;-51
2023/06/11 05:38:06;;;;;;;11.55;10.45;;;19.70;98.60;;;;;;5093115;28;20180;-52
2023/06/11 05:40:32;;;;;;;10.80;9.77;;;19.80;98.10;;;;;;5093743;28;20424;-51
2023/06/11 05:42:58;;;;;;;13.13;10.57;;;19.80;97.70;;;;;;5093201;28;20221;-56
2023/06/11 05:45:25;;;;;;;13.02;10.27;;;19.90;97.70;;;;;;5093019;28;20040;-55
2023/06/11 05:47:51;;;;;;;13.68;11.13;;;20.00;97.70;;;;;;5093225;28;20055;-54
2023/06/11 05:50:16;;;;;;;11.25;10.23;;;20.00;97.50;;;;;;5093334;28;20048;-54
2023/06/11 05:52:43;;;;;;;;;;;20.10;97.30;;;;;;5093755;28;20035;-57
2023/06/11 05:55:08;;;;;;;21.70;10.55;;;20.10;97.20;;;;;;5093234;28;19969;-53
2023/06/11 05:57:34;;;;;;;11.13;10.02;;;20.20;96.90;;;;;;5092839;28;20048;-52
2023/06/11 06:00:00;;;;;;;;;;;20.30;97.10;;;;;;5093506;28;20028;-53
2023/06/11 06:02:26;;;;;;;10.88;9.90;;;20.40;97.40;;;;;;5103120;28;20313;-49
2023/06/11 06:04:51;;;;;;;12.40;10.50;;;20.50;97.10;;;;;;5096362;28;20036;-49
2023/06/11 06:07:17;;;;;;;;;;;20.60;96.90;;;;;;5095214;28;20535;-52
2023/06/11 06:09:43;;;;;;;12.52;10.35;;;20.70;96.40;;;;;;5098614;28;19923;-49
2023/06/11 06:12:09;;;;;;;;;;;20.80;96.50;;;;;;5101862;28;20496;-52
2023/06/11 06:14:35;;;;;;;24.13;11.30;;;20.90;96.70;;;;;;5108401;28;20245;-49
2023/06/11 06:17:00;;;;;;;;;;;20.90;96.20;;;;;;5100771;28;20043;-49
2023/06/11 06:19:26;;;;;;;11.07;10.05;;;21.10;95.90;;;;;;5096167;28;19923;-50
2023/06/11 06:21:51;;;;;;;;;;;21.10;95.80;;;;;;5093215;28;20036;-52
2023/06/11 06:24:17;;;;;;;14.52;10.13;;;21.20;95.50;;;;;;5092625;28;19964;-52
2023/06/11 06:26:43;;;;;;;;;;;21.20;95.60;;;;;;5093054;28;20093;-51
2023/06/11 06:29:10;;;;;;;10.70;9.65;;;21.30;95.70;;;;;;5091872;28;19942;-50
2023/06/11 06:31:36;;;;;;;10.80;9.48;;;21.40;95.60;;;;;;5092232;28;20538;-53
2023/06/11 06:34:03;;;;;;;13.18;10.10;;;21.50;95.50;;;;;;5091631;28;20165;-48
2023/06/11 06:36:28;;;;;;;23.75;10.02;;;21.50;95.40;;;;;;5089950;28;20075;-48
2023/06/11 06:38:54;;;;;;;;;;;21.60;95.40;;;;;;5095702;28;20508;-50
2023/06/11 06:41:20;;;;;;;28.02;10.80;;;21.70;95.60;;;;;;5091853;28;19916;-53
2023/06/11 06:43:45;;;;;;;;;;;21.90;95.20;;;;;;5092227;28;20047;-48
2023/06/11 06:46:11;;;;;;;9.90;9.00;;;22.00;95.40;;;;;;5092142;28;20485;-50
2023/06/11 06:48:36;;;;;;;;;;;22.10;95.00;;;;;;5092063;28;20044;-53
2023/06/11 06:51:02;;;;;;;10.88;9.43;;;22.20;94.60;;;;;;5090031;28;19916;-53
2023/06/11 06:53:28;;;;;;;;;;;22.20;94.60;;;;;;5091912;28;20040;-51
2023/06/11 06:55:53;;;;;;;16.45;9.05;;;22.30;94.30;;;;;;5092007;28;20354;-51
2023/06/11 06:58:19;;;;;;;;;;;22.40;94.30;;;;;;5090702;28;20044;-52
2023/06/11 07:00:45;;;;;;;14.88;8.95;;;22.50;94.10;;;;;;5091981;28;19973;-53
2023/06/11 07:03:13;;;;;;;10.32;8.75;;;22.60;94.40;;;;;;5091992;28;20036;-54
2023/06/11 07:05:40;;;;;;;8.88;8.00;;;22.70;94.10;;;;;;5091945;28;20447;-51
2023/06/11 07:08:08;;;;;;;10.32;9.13;;;22.70;94.30;;;;;;5091653;28;20146;-51
2023/06/11 07:10:34;;;;;;;13.55;8.20;;;22.90;93.40;;;;;;5090432;28;20048;-50
2023/06/11 07:13:00;;;;;;;10.43;9.15;;;22.90;93.80;;;;;;5089896;28;20071;-54
2023/06/11 07:15:26;;;;;;;;;;;23.00;93.50;;;;;;5092261;28;20536;-53
2023/06/11 07:17:51;;;;;;;10.77;8.57;;;23.10;93.60;;;;;;5091040;28;19916;-51
2023/06/11 07:20:17;;;;;;;9.27;8.45;;;23.20;93.40;;;;;;5091290;28;20105;-53
2023/06/11 07:22:42;;;;;;;11.88;8.13;;;23.30;93.00;;;;;;5089948;28;20044;-48
2023/06/11 07:25:08;;;;;;;10.05;8.93;;;23.40;92.80;;;;;;5091371;28;20051;-53
2023/06/11 07:27:34;;;;;;;7.78;7.00;;;23.40;92.60;;;;;;5090622;28;20032;-53
2023/06/11 07:30:00;;;;;;;65.90;9.25;;;23.50;92.50;;;;;;5091392;28;20048;-48
2023/06/11 07:32:25;;;;;;;9.82;6.60;;;23.50;92.40;;;;;;5091057;28;20039;-50
2023/06/11 07:34:51;;;;;;;63.83;10.10;;;23.70;92.30;;;;;;5091151;28;20036;-51
2023/06/11 07:37:16;;;;;;;11.32;8.18;;;23.80;92.30;;;;;;5090772;28;20036;-49
2023/06/11 07:39:43;;;;;;;9.23;7.22;;;23.90;92.00;;;;;;5090994;28;20485;-52
2023/06/11 07:42:08;;;;;;;7.80;6.65;;;24.00;92.00;;;;;;5090788;28;20043;-54
2023/06/11 07:44:34;;;;;;;7.22;6.63;;;24.20;91.60;;;;;;5088936;28;20465;-49
2023/06/11 07:47:00;;;;;;;8.57;6.75;;;24.20;91.50;;;;;;5090615;28;20036;-52
2023/06/11 07:49:26;;;;;;;76.18;11.10;;;24.30;91.30;;;;;;5088844;28;20039;-54
2023/06/11 07:51:51;;;;;;;9.68;7.00;;;24.40;91.10;;;;;;5090437;28;20028;-53
2023/06/11 07:54:17;;;;;;;12.30;7.05;;;24.40;91.10;;;;;;5089230;28;20040;-52
2023/06/11 07:56:46;;;;;;;7.72;6.95;;;24.50;91.20;;;;;;5090333;28;20044;-51
2023/06/11 07:59:12;;;;;;;219.50;22.55;;;24.60;90.80;;;;;;5088959;28;20077;-55
2023/06/11 08:01:38;;;;;;;15.55;7.97;;;24.70;91.40;;;;;;5090439;28;20040;-51
2023/06/11 08:04:03;;;;;;;7.32;6.32;;;24.90;91.00;;;;;;5089400;28;20047;-52
2023/06/11 08:06:29;;;;;;;102.38;14.15;;;25.00;90.80;;;;;;5090852;28;20089;-52
2023/06/11 08:08:56;;;;;;;20.27;7.90;;;25.10;90.50;;;;;;5090401;28;20035;-53
2023/06/11 08:11:22;;;;;;;11.88;6.45;;;25.20;90.00;;;;;;5090117;28;20450;-52
2023/06/11 08:13:47;;;;;;;9.68;6.55;;;25.20;90.20;;;;;;5090697;28;20546;-51
2023/06/11 08:16:15;;;;;;;7.03;6.38;;;25.30;89.50;;;;;;5088806;28;20040;-53
2023/06/11 08:18:41;;;;;;;7.55;5.70;;;25.30;89.30;;;;;;5090388;28;20101;-54
2023/06/11 08:21:06;;;;;;;27.60;7.75;;;25.40;88.50;;;;;;5089517;28;20493;-52
2023/06/11 08:23:35;;;;;;;11.85;7.28;;;25.50;88.60;;;;;;5092501;28;20040;-53
2023/06/11 08:26:01;;;;;;;6.93;6.25;;;25.60;89.50;;;;;;5092155;28;20032;-56
2023/06/11 08:28:27;;;;;;;8.05;5.65;;;25.70;89.60;;;;;;5090031;28;20059;-51
2023/06/11 08:30:54;;;;;;;7.22;6.47;;;25.80;89.40;;;;;;5089943;28;20046;-53
2023/06/11 08:33:19;;;;;;;6.90;6.13;;;25.80;88.20;;;;;;5090204;28;20072;-55
2023/06/11 08:35:45;;;;;;;15.82;7.85;;;25.90;87.70;;;;;;5090079;28;20632;-53
2023/06/11 08:38:11;;;;;;;49.42;10.82;;;26.00;88.00;;;;;;5089687;28;20093;-54
2023/06/11 08:40:40;;;;;;;13.68;7.28;;;26.10;87.50;;;;;;5088073;28;20044;-54
2023/06/11 08:43:07;;;;;;;14.88;6.95;;;26.10;86.10;;;;;;5089702;28;20115;-55
2023/06/11 08:45:33;;;;;;;28.83;11.23;;;26.10;86.50;;;;;;5090282;28;20051;-51
2023/06/11 08:48:02;;;;;;;65.10;10.45;;;26.20;86.90;;;;;;5089364;28;20032;-52
2023/06/11 08:50:29;;;;;;;12.07;6.13;;;26.30;86.20;;;;;;5090030;28;20115;-51
2023/06/11 08:52:56;;;;;;;9.18;6.45;;;26.30;85.90;;;;;;5089264;28;20048;-51
2023/06/11 08:55:22;;;;;;;12.98;6.45;;;26.40;85.40;;;;;;5089792;28;20047;-53
2023/06/11 08:57:50;;;;;;;8.27;5.38;;;26.50;86.60;;;;;;5092848;28;20036;-53
2023/06/11 09:00:16;;;;;;;110.00;12.05;;;26.50;85.50;;;;;;5094291;28;20067;-52
2023/06/11 09:02:42;;;;;;;9.65;5.32;;;26.60;85.40;;;;;;5093702;28;20097;-50
2023/06/11 09:05:10;;;;;;;8.13;5.57;;;26.70;85.50;;;;;;5093969;28;20593;-50
2023/06/11 09:07:36;;;;;;;6.28;5.78;;;26.70;84.90;;;;;;5092986;28;20036;-51
2023/06/11 09:10:11;;;;;;;8.60;6.13;;;26.80;85.20;;;;;;5092459;28;20044;-48
2023/06/11 09:12:37;;;;;;;6.78;5.93;;;26.90;84.70;;;;;;5093762;28;20386;-49
2023/06/11 09:15:05;;;;;;;6.65;5.65;;;26.90;84.60;;;;;;5092389;28;20051;-50
2023/06/11 09:17:38;;;;;;;14.20;5.25;;;27.00;84.00;;;;;;5093250;28;20458;-48
2023/06/11 09:20:07;;;;;;;10.18;5.18;;;27.00;82.60;;;;;;5093248;28;20040;-48
2023/06/11 09:22:35;;;;;;;11.05;5.43;;;27.10;82.30;;;;;;5093480;28;20040;-51
2023/06/11 09:25:18;;;;;;;5.55;4.72;;;27.10;82.00;;;;;;5093702;28;20497;-49
2023/06/11 09:27:45;;;;;;;6.55;5.85;;;27.20;82.80;;;;;;5093057;28;20032;-49
2023/06/11 09:30:19;;;;;;;5.82;5.05;;;27.30;81.80;;;;;;5093423;28;20393;-48
2023/06/11 09:32:47;;;;;;;5.10;4.63;;;27.40;80.60;;;;;;5093012;28;20032;-50
2023/06/11 09:35:14;;;;;;;6.65;5.13;;;27.40;80.30;;;;;;5093670;28;20036;-52
2023/06/11 09:37:45;;;;;;;10.77;5.30;;;27.60;81.70;;;;;;5093164;28;20028;-54
2023/06/11 09:40:20;;;;;;;8.75;5.57;;;27.60;80.30;;;;;;5093456;28;20048;-53
2023/06/11 09:42:48;;;;;;;5.28;4.88;;;27.70;80.20;;;;;;5092440;28;20028;-55
2023/06/11 09:45:16;;;;;;;4.85;4.38;;;27.80;79.50;;;;;;5093194;28;20115;-52
2023/06/11 09:47:44;;;;;;;4.53;4.15;;;27.80;78.00;;;;;;5093293;28;20043;-54
2023/06/11 09:50:12;;;;;;;11.52;5.10;;;27.90;78.10;;;;;;5093705;28;20036;-54
2023/06/11 09:52:38;;;;;;;10.70;4.40;;;28.00;79.50;;;;;;5093019;28;20068;-48
2023/06/11 09:55:06;;;;;;;4.47;4.15;;;28.00;78.40;;;;;;5093265;28;20079;-53
2023/06/11 09:57:32;;;;;;;4.88;4.22;;;28.10;77.40;;;;;;5092703;28;20043;-55
2023/06/11 10:00:00;;;;;;;6.47;4.85;;;28.10;76.90;;;;;;5092838;28;20512;-53
2023/06/11 10:02:26;;;;;;;6.35;5.00;;;28.20;78.20;;;;;;5092933;28;20040;-51
2023/06/11 10:04:51;;;;;;;5.70;3.70;;;28.20;76.50;;;;;;5093012;28;20044;-54
2023/06/11 10:07:21;;;;;;;73.00;8.55;;;28.30;75.70;;;;;;5093133;28;20032;-54
2023/06/11 10:09:50;;;;;;;5.32;4.10;;;28.40;76.80;;;;;;5071894;28;20456;-53
2023/06/11 10:12:16;;;;;;;5.88;4.00;;;28.30;75.70;;;;;;5072091;28;20037;-52
2023/06/11 10:14:49;;;;;;;7.85;4.57;;;28.40;76.40;;;;;;5092378;28;20569;-51
2023/06/11 10:17:15;;;;;;;6.28;4.50;;;28.40;76.30;;;;;;5092922;28;20040;-49
2023/06/11 10:19:41;;;;;;;6.28;4.45;;;28.40;73.80;;;;;;5092046;28;20408;-49
2023/06/11 10:22:07;;;;;;;5.15;4.80;;;28.40;73.00;;;;;;5092751;28;20119;-50
2023/06/11 10:24:32;;;;;;;9.95;5.72;;;28.50;74.00;;;;;;5092030;28;20161;-50
2023/06/11 10:27:05;;;;;;;8.43;5.05;;;28.50;74.00;;;;;;5092414;28;20035;-51
2023/06/11 10:29:54;;;;;;;17.67;4.82;;;28.60;74.00;;;;;;5091975;28;20051;-50
2023/06/11 10:32:22;;;;;;;6.07;4.05;;;28.70;73.70;;;;;;5072257;28;20063;-51
2023/06/11 10:34:53;;;;;;;4.97;4.57;;;28.80;72.80;;;;;;5089396;28;20295;-53
2023/06/11 10:37:31;;;;;;;9.93;4.65;;;28.80;74.60;;;;;;5092319;28;20419;-49
2023/06/11 10:39:56;;;;;;;5.78;4.32;;;28.80;73.10;;;;;;5091699;28;20044;-50
2023/06/11 10:42:24;;;;;;;4.60;4.00;;;28.90;73.20;;;;;;5091874;28;20048;-49
2023/06/11 10:44:51;;;;;;;5.60;4.13;;;28.90;73.50;;;;;;5090445;28;20119;-50
2023/06/11 10:47:16;;;;;;;4.20;3.80;;;29.00;71.20;;;;;;5092232;28;20040;-52
2023/06/11 10:49:42;;;;;;;7.85;4.70;;;28.90;70.30;;;;;;5091230;28;20039;-49
2023/06/11 10:52:08;;;;;;;6.95;4.57;;;28.60;71.40;;;;;;5091924;28;20067;-49
2023/06/11 10:54:36;;;;;;;4.88;4.57;;;28.40;71.50;;;;;;5092084;28;20035;-49
2023/06/11 10:57:02;;;;;;;6.10;4.75;;;28.40;73.10;;;;;;5092218;28;20050;-49
2023/06/11 10:59:30;;;;;;;4.93;4.32;;;28.50;72.60;;;;;;5091453;28;20032;-49
2023/06/11 11:01:56;;;;;;;6.38;4.35;;;28.60;72.30;;;;;;5090111;28;20477;-50
2023/06/11 11:04:22;;;;;;;6.63;4.50;;;28.80;71.60;;;;;;5091134;28;20119;-49
2023/06/11 11:06:55;;;;;;;8.35;5.13;;;28.80;71.60;;;;;;5091264;28;20039;-47
2023/06/11 11:09:23;;;;;;;14.52;4.50;;;28.80;72.10;;;;;;5091292;28;20086;-49
2023/06/11 11:11:50;;;;;;;4.75;4.35;;;28.80;70.90;;;;;;5091295;28;20075;-51
2023/06/11 11:14:19;;;;;;;10.07;4.45;;;28.80;70.10;;;;;;5091500;28;20046;-52
2023/06/11 11:16:48;;;;;;;5.25;4.72;;;28.50;69.20;;;;;;5091074;28;20044;-49
2023/06/11 11:19:14;;;;;;;4.90;4.40;;;28.40;69.20;;;;;;5090759;28;20046;-49
2023/06/11 11:21:39;;;;;;;6.03;4.65;;;28.20;69.30;;;;;;5091036;28;20107;-49
2023/06/11 11:24:12;;;;;;;5.97;4.32;;;28.30;69.40;;;;;;5091100;28;20032;-49
2023/06/11 11:26:42;;;;;;;11.90;4.72;;;28.50;70.70;;;;;;5091661;28;20067;-49
2023/06/11 11:29:07;;;;;;;6.00;4.03;;;28.70;68.50;;;;;;5091321;28;20040;-48
2023/06/11 11:31:34;;;;;;;6.55;5.05;;;28.90;68.60;;;;;;5099272;28;20508;-49
2023/06/11 11:34:00;;;;;;;11.68;4.60;;;28.90;68.40;;;;;;5092495;28;20421;-50
2023/06/11 11:36:26;;;;;;;6.57;4.72;;;29.00;69.50;;;;;;5073403;28;20044;-50
2023/06/11 11:38:51;;;;;;;9.98;4.68;;;29.20;69.10;;;;;;5090490;28;20043;-50
2023/06/11 11:41:22;;;;;;;8.30;4.32;;;29.30;69.10;;;;;;5091166;28;20046;-50
2023/06/11 11:43:49;;;;;;;8.68;4.53;;;29.40;67.70;;;;;;5088995;28;20051;-49
2023/06/11 11:46:16;;;;;;;7.68;4.53;;;29.40;66.70;;;;;;5091359;28;20169;-49
2023/06/11 11:48:42;;;;;;;6.75;4.15;;;29.40;68.90;;;;;;5090696;28;20405;-50
2023/06/11 11:51:08;;;;;;;9.38;4.93;;;29.40;67.50;;;;;;5089651;28;20039;-49
2023/06/11 11:53:36;;;;;;;6.13;4.00;;;29.40;68.00;;;;;;5089858;28;20044;-48
2023/06/11 11:56:04;;;;;;;5.05;4.55;;;29.40;67.80;;;;;;5090419;28;20046;-50
2023/06/11 11:58:36;;;;;;;4.82;4.20;;;29.20;66.70;;;;;;5089120;28;20489;-50
2023/06/11 12:01:02;;;;;;;5.93;4.70;;;29.20;67.10;;;;;;5090408;28;20111;-49
2023/06/11 12:03:28;;;;;;;9.80;4.80;;;29.30;67.00;;;;;;5090945;28;20170;-52
2023/06/11 12:06:02;;;;;;;7.03;4.05;;;29.40;67.80;;;;;;5090375;28;20040;-49
2023/06/11 12:08:29;;;;;;;14.13;4.95;;;29.30;66.70;;;;;;5090234;28;20493;-50
2023/06/11 12:10:59;;;;;;;4.72;4.28;;;29.30;67.30;;;;;;5090477;28;20127;-48
2023/06/11 12:13:25;;;;;;;5.25;4.60;;;29.30;67.20;;;;;;5090834;28;20044;-50
2023/06/11 12:15:51;;;;;;;9.77;4.68;;;29.30;66.00;;;;;;5090249;28;20047;-49
2023/06/11 12:18:18;;;;;;;5.53;4.13;;;29.10;65.70;;;;;;5090314;28;20048;-49
2023/06/11 12:20:44;;;;;;;7.53;3.72;;;29.10;66.80;;;;;;5088971;28;20051;-54
2023/06/11 12:23:09;;;;;;;6.20;3.90;;;29.20;66.30;;;;;;5090349;28;20485;-52
2023/06/11 12:25:35;;;;;;;5.57;4.97;;;29.30;67.30;;;;;;5090211;28;20067;-52
2023/06/11 12:28:02;;;;;;;5.07;4.68;;;29.50;66.10;;;;;;5090021;28;20125;-52
2023/06/11 12:30:32;;;;;;;5.30;4.43;;;29.60;65.60;;;;;;5090383;28;20126;-50
2023/06/11 12:32:58;;;;;;;10.57;4.97;;;29.70;66.20;;;;;;5089970;28;20040;-54
2023/06/11 12:35:24;;;;;;;4.95;4.38;;;29.80;66.60;;;;;;5092574;28;20035;-51
2023/06/11 12:37:50;;;;;;;6.95;4.40;;;29.80;64.80;;;;;;5095629;28;20137;-50
2023/06/11 12:40:16;;;;;;;8.43;4.20;;;29.60;65.10;;;;;;5089337;28;20731;-50
2023/06/11 12:42:44;;;;;;;6.38;4.43;;;29.40;64.50;;;;;;5090284;28;20177;-53
2023/06/11 12:45:10;;;;;;;6.53;4.70;;;29.10;64.10;;;;;;5088534;28;20098;-52